Antelope, Texas
Current Conditions -  °F | °C
As of 4:10 AM on Thursday 23 Oct 2014 (Local Time) from KRPH Reporting Station
Overcast Overcast  
Wind Chill: 66°   Ceiling: 9000
Heat Index: 66°   Visibility: 10mi
Dew Point: 58°   Wind: 7mph
Humidity: 76%   Direction: 150°SSE
Pressure: 30.08"   Gusts: NA
Location:  33.4259°N, 98.383°W
Report Text: KRPH 230910Z AUTO 15006KT 10SM OVC090 19/15 A3008 RMK AO2 T01900147
Loading
Personal Weather Stations






























Interactive Weather Map New forecast layout! Learn more

10-Day Weather Forecast

Advertisements
Track Severe Weather on mobile